Time;durP1;ratioP1;P1;durP2;ratioP2;P2;SDS_P1;SDS_P2;PMS_P1;PMS_P2;Temp;Humidity;BMP_temperature;BMP_pressure;BME280_temperature;BME280_humidity;BME280_pressure;Samples;Min_cycle;Max_cycle;Signal;HPM_P1;HPM_P2
2021/08/08 00:00:52;;;;;;;55.90;52.53;;;;;;;;;;5008567;28;20477;-61
2021/08/08 00:03:19;;;;;;;54.10;51.40;;;;;;;;;;5008137;28;20469;-61
2021/08/08 00:05:46;;;;;;;54.17;51.07;;;;;;;;;;5009244;28;20465;-61
2021/08/08 00:08:14;;;;;;;58.90;55.50;;;;;;;;;;5008986;28;20446;-61
2021/08/08 00:10:41;;;;;;;58.23;55.13;;;;;;;;;;5008369;28;20485;-61
2021/08/08 00:13:08;;;;;;;59.27;56.27;;;;;;;;;;5009406;28;20545;-61
2021/08/08 00:15:37;;;;;;;64.37;60.80;;;;;;;;;;5009678;28;20461;-61
2021/08/08 00:18:06;;;;;;;58.97;56.07;;;;;;;;;;5010269;28;21042;-61
2021/08/08 00:20:33;;;;;;;79.73;75.77;;;;;;;;;;5012785;28;20474;-61
2021/08/08 00:23:00;;;;;;;69.80;66.23;;;;;;;;;;5008735;28;20458;-61
2021/08/08 00:25:28;;;;;;;72.77;68.70;;;;;;;;;;5012982;28;20464;-61
2021/08/08 00:27:55;;;;;;;63.20;59.90;;;;;;;;;;5013911;28;20519;-61
2021/08/08 00:30:22;;;;;;;68.87;65.33;;;;;;;;;;5013665;28;20493;-61
2021/08/08 00:32:49;;;;;;;64.63;61.43;;;;;;;;;;5014192;28;20467;-61
2021/08/08 00:35:19;;;;;;;62.37;59.10;;;;;;;;;;5012941;28;20470;-62
2021/08/08 00:37:48;;;;;;;57.93;54.83;;;;;;;;;;5014118;28;20640;-62
2021/08/08 00:40:16;;;;;;;60.73;57.40;;;;;;;;;;5013432;28;20536;-62
2021/08/08 00:42:45;;;;;;;55.30;52.20;;;;;;;;;;5012417;28;20445;-61
2021/08/08 00:45:13;;;;;;;55.90;53.10;;;;;;;;;;5012995;28;20458;-61
2021/08/08 00:47:40;;;;;;;49.47;46.83;;;;;;;;;;5012144;28;20466;-60
2021/08/08 00:50:07;;;;;;;46.80;44.27;;;;;;;;;;5011868;28;20584;-63
2021/08/08 00:52:36;;;;;;;43.83;41.27;;;;;;;;;;5011267;28;20482;-62
2021/08/08 00:55:03;;;;;;;43.90;41.60;;;;;;;;;;5013704;28;20453;-62
2021/08/08 00:57:30;;;;;;;45.17;42.70;;;;;;;;;;5013352;28;20501;-61
2021/08/08 00:59:57;;;;;;;43.60;41.30;;;;;;;;;;5012039;28;20470;-63
2021/08/08 01:02:24;;;;;;;45.37;43.03;;;;;;;;;;5012766;28;20466;-61
2021/08/08 01:04:54;;;;;;;43.83;41.50;;;;;;;;;;5014673;28;20462;-61
2021/08/08 01:07:23;;;;;;;40.80;38.67;;;;;;;;;;5012646;28;20465;-62
2021/08/08 01:09:54;;;;;;;44.60;42.20;;;;;;;;;;5007641;28;20490;-61
2021/08/08 01:12:22;;;;;;;41.90;39.70;;;;;;;;;;5008948;28;20456;-61
2021/08/08 01:14:50;;;;;;;40.50;38.10;;;;;;;;;;5007859;28;20453;-62
2021/08/08 01:17:17;;;;;;;39.40;37.40;;;;;;;;;;5009224;28;20449;-62
2021/08/08 01:19:48;;;;;;;37.87;35.87;;;;;;;;;;5008312;28;20462;-61
2021/08/08 01:22:15;;;;;;;36.93;34.97;;;;;;;;;;5011332;28;20450;-62
2021/08/08 01:24:45;;;;;;;35.70;33.70;;;;;;;;;;5009569;28;20478;-62
2021/08/08 01:27:12;;;;;;;36.77;34.87;;;;;;;;;;5007959;28;20540;-62
2021/08/08 01:29:39;;;;;;;37.10;35.10;;;;;;;;;;5007491;28;20488;-63
2021/08/08 01:32:06;;;;;;;36.80;34.87;;;;;;;;;;5008250;28;20556;-61
2021/08/08 01:34:34;;;;;;;36.60;34.50;;;;;;;;;;5006666;28;20465;-61
2021/08/08 01:37:01;;;;;;;35.20;33.30;;;;;;;;;;5005895;28;20473;-61
2021/08/08 01:39:28;;;;;;;34.77;32.87;;;;;;;;;;5007067;28;20485;-62
2021/08/08 01:41:58;;;;;;;36.30;34.30;;;;;;;;;;5007916;28;20475;-60
2021/08/08 01:44:26;;;;;;;36.23;34.13;;;;;;;;;;5007762;28;20548;-60
2021/08/08 01:46:54;;;;;;;35.97;34.07;;;;;;;;;;5006569;28;20467;-61
2021/08/08 01:49:23;;;;;;;36.23;34.33;;;;;;;;;;5006605;28;21041;-60
2021/08/08 01:51:51;;;;;;;37.90;35.90;;;;;;;;;;5006199;28;20584;-61
2021/08/08 01:54:18;;;;;;;35.47;33.57;;;;;;;;;;5006606;28;20467;-61
2021/08/08 01:56:46;;;;;;;34.80;32.90;;;;;;;;;;5007983;28;20854;-61
2021/08/08 01:59:14;;;;;;;35.90;34.00;;;;;;;;;;5011273;28;20838;-61
2021/08/08 02:01:42;;;;;;;35.63;33.70;;;;;;;;;;5009597;28;20465;-61
2021/08/08 02:04:16;;;;;;;36.10;34.10;;;;;;;;;;5011086;28;20468;-62
2021/08/08 02:06:43;;;;;;;40.33;36.47;;;;;;;;;;5010801;28;21235;-61
2021/08/08 02:09:10;;;;;;;36.90;34.83;;;;;;;;;;5009281;28;20493;-62
2021/08/08 02:11:37;;;;;;;36.77;34.77;;;;;;;;;;5010651;28;20489;-62
2021/08/08 02:14:04;;;;;;;36.40;34.30;;;;;;;;;;5009585;28;20461;-62
2021/08/08 02:16:34;;;;;;;35.23;33.40;;;;;;;;;;5009346;28;20465;-61
2021/08/08 02:19:01;;;;;;;35.10;33.20;;;;;;;;;;5010183;28;20507;-62
2021/08/08 02:21:28;;;;;;;35.37;33.30;;;;;;;;;;5009786;28;20492;-62
2021/08/08 02:23:55;;;;;;;34.93;32.93;;;;;;;;;;5011889;28;20469;-62
2021/08/08 02:26:23;;;;;;;34.67;32.73;;;;;;;;;;5006403;28;20552;-61
2021/08/08 02:28:50;;;;;;;34.63;32.63;;;;;;;;;;5006302;28;21909;-61
2021/08/08 02:31:17;;;;;;;36.43;34.40;;;;;;;;;;5007630;28;20493;-61
2021/08/08 02:33:46;;;;;;;36.87;34.87;;;;;;;;;;5009754;28;20461;-60
2021/08/08 02:36:13;;;;;;;36.97;34.97;;;;;;;;;;5009468;28;20850;-61
2021/08/08 02:38:40;;;;;;;36.33;34.33;;;;;;;;;;5010584;28;20477;-61
2021/08/08 02:41:09;;;;;;;35.87;33.87;;;;;;;;;;5009480;28;20472;-61
2021/08/08 02:43:37;;;;;;;35.70;33.60;;;;;;;;;;5007045;28;20457;-60
2021/08/08 02:46:04;;;;;;;37.07;35.13;;;;;;;;;;5008933;28;20928;-61
2021/08/08 02:48:32;;;;;;;36.40;34.20;;;;;;;;;;5009178;28;20984;-60
2021/08/08 02:51:01;;;;;;;36.80;34.70;;;;;;;;;;5008654;28;20536;-61
2021/08/08 02:53:28;;;;;;;36.17;34.07;;;;;;;;;;5009221;28;20461;-61
2021/08/08 02:55:55;;;;;;;35.27;33.47;;;;;;;;;;5009828;28;20467;-60
2021/08/08 02:58:22;;;;;;;37.43;35.27;;;;;;;;;;5008755;28;20977;-61
2021/08/08 03:00:49;;;;;;;37.47;35.57;;;;;;;;;;5009819;28;20490;-61
2021/08/08 03:03:17;;;;;;;36.50;34.40;;;;;;;;;;5009354;28;20470;-61
2021/08/08 03:05:44;;;;;;;36.47;34.57;;;;;;;;;;5010187;28;20469;-60
2021/08/08 03:08:12;;;;;;;37.53;35.40;;;;;;;;;;5008940;28;20466;-60
2021/08/08 03:10:39;;;;;;;36.60;34.70;;;;;;;;;;5007806;28;20485;-61
2021/08/08 03:13:06;;;;;;;36.63;34.53;;;;;;;;;;5009737;28;20588;-61
2021/08/08 03:15:34;;;;;;;35.23;33.17;;;;;;;;;;5009530;28;20469;-60
2021/08/08 03:18:01;;;;;;;35.43;33.33;;;;;;;;;;5008829;28;20461;-61
2021/08/08 03:20:28;;;;;;;38.20;36.00;;;;;;;;;;5008654;28;20520;-60
2021/08/08 03:22:55;;;;;;;38.57;36.27;;;;;;;;;;5007049;28;20466;-60
2021/08/08 03:25:24;;;;;;;36.90;34.70;;;;;;;;;;5008812;28;20466;-60
2021/08/08 03:27:51;;;;;;;38.27;36.17;;;;;;;;;;5011794;28;20474;-60
2021/08/08 03:30:18;;;;;;;37.23;35.23;;;;;;;;;;5011003;28;20489;-60
2021/08/08 03:32:45;;;;;;;36.43;34.33;;;;;;;;;;5008103;28;20478;-60
2021/08/08 03:35:12;;;;;;;36.30;34.40;;;;;;;;;;5007826;28;20466;-60
2021/08/08 03:37:40;;;;;;;35.60;33.70;;;;;;;;;;5009019;28;20468;-60
2021/08/08 03:40:08;;;;;;;36.00;34.10;;;;;;;;;;5009453;28;20489;-61
2021/08/08 03:42:36;;;;;;;37.43;35.43;;;;;;;;;;5008561;28;20474;-61
2021/08/08 03:45:04;;;;;;;37.30;35.40;;;;;;;;;;5008230;28;20462;-60
2021/08/08 03:47:33;;;;;;;36.90;35.00;;;;;;;;;;5008328;28;20540;-61
2021/08/08 03:50:00;;;;;;;37.80;35.70;;;;;;;;;;5008092;28;20489;-60
2021/08/08 03:52:27;;;;;;;37.60;35.50;;;;;;;;;;5008351;28;20508;-60
2021/08/08 03:54:54;;;;;;;36.67;34.43;;;;;;;;;;5006911;28;22107;-60
2021/08/08 03:57:22;;;;;;;38.00;36.00;;;;;;;;;;5008166;28;20469;-60
2021/08/08 03:59:50;;;;;;;37.33;35.23;;;;;;;;;;5022268;22;20501;-68
2021/08/08 04:02:17;;;;;;;36.63;34.50;;;;;;;;;;5008342;28;20468;-68
2021/08/08 04:04:44;;;;;;;37.90;35.90;;;;;;;;;;5009466;28;20984;-68
2021/08/08 04:07:11;;;;;;;37.37;35.27;;;;;;;;;;5008547;28;20465;-68
2021/08/08 04:09:38;;;;;;;37.23;35.23;;;;;;;;;;5010306;28;21036;-68
2021/08/08 04:12:07;;;;;;;37.87;35.77;;;;;;;;;;5016853;28;20499;-69
2021/08/08 04:14:34;;;;;;;36.90;34.87;;;;;;;;;;5015217;28;20496;-69
2021/08/08 04:17:02;;;;;;;36.20;34.20;;;;;;;;;;5016454;28;20470;-68
2021/08/08 04:19:29;;;;;;;38.33;36.13;;;;;;;;;;5015275;28;20833;-69
2021/08/08 04:21:56;;;;;;;38.57;36.10;;;;;;;;;;5015708;28;20491;-67
2021/08/08 04:24:23;;;;;;;37.33;35.17;;;;;;;;;;5015254;28;20476;-68
2021/08/08 04:26:51;;;;;;;35.50;33.50;;;;;;;;;;5016423;28;20464;-68
2021/08/08 04:29:18;;;;;;;35.00;33.10;;;;;;;;;;5015234;28;20466;-68
2021/08/08 04:31:45;;;;;;;35.83;33.73;;;;;;;;;;5015796;28;20489;-68
2021/08/08 04:34:13;;;;;;;36.10;33.80;;;;;;;;;;5016246;28;20476;-69
2021/08/08 04:36:40;;;;;;;35.07;33.07;;;;;;;;;;5017461;28;20477;-69
2021/08/08 04:39:08;;;;;;;34.07;32.07;;;;;;;;;;5016007;28;20473;-68
2021/08/08 04:41:35;;;;;;;35.10;33.10;;;;;;;;;;5016522;28;20495;-69
2021/08/08 04:44:02;;;;;;;34.20;32.20;;;;;;;;;;5017594;28;20477;-68
2021/08/08 04:46:29;;;;;;;33.30;31.40;;;;;;;;;;5015422;28;20478;-68
2021/08/08 04:48:56;;;;;;;36.60;34.37;;;;;;;;;;5018372;28;21091;-67
2021/08/08 04:51:24;;;;;;;37.60;35.20;;;;;;;;;;5014876;28;20496;-68
2021/08/08 04:53:51;;;;;;;38.07;35.87;;;;;;;;;;5017888;28;20971;-68
2021/08/08 04:56:19;;;;;;;39.67;37.37;;;;;;;;;;5017678;28;20472;-68
2021/08/08 04:58:46;;;;;;;38.57;36.17;;;;;;;;;;5015491;28;20468;-68
2021/08/08 05:01:13;;;;;;;36.77;34.57;;;;;;;;;;5017171;28;20489;-68
2021/08/08 05:03:40;;;;;;;37.17;35.17;;;;;;;;;;5017242;28;20472;-68
2021/08/08 05:06:07;;;;;;;34.37;32.33;;;;;;;;;;5016078;28;20470;-68
2021/08/08 05:08:36;;;;;;;35.53;33.17;;;;;;;;;;5012331;28;20465;-68
2021/08/08 05:11:03;;;;;;;35.40;33.30;;;;;;;;;;5015186;28;20486;-67
2021/08/08 05:13:30;;;;;;;38.03;35.60;;;;;;;;;;5017397;28;20469;-67
2021/08/08 05:15:58;;;;;;;36.57;34.47;;;;;;;;;;5017539;28;20461;-67
2021/08/08 05:18:25;;;;;;;38.07;35.87;;;;;;;;;;5014724;28;21040;-67
2021/08/08 05:20:52;;;;;;;38.40;36.40;;;;;;;;;;5016375;28;20488;-67
2021/08/08 05:23:19;;;;;;;39.63;37.30;;;;;;;;;;5015754;28;21044;-68
2021/08/08 05:25:48;;;;;;;40.13;37.83;;;;;;;;;;5016587;28;20483;-68
2021/08/08 05:28:15;;;;;;;37.90;35.67;;;;;;;;;;5016531;28;21001;-67
2021/08/08 05:30:42;;;;;;;41.00;38.73;;;;;;;;;;5013792;28;20499;-68
2021/08/08 05:33:09;;;;;;;39.80;37.70;;;;;;;;;;5014956;28;20983;-68
2021/08/08 05:35:36;;;;;;;39.10;36.70;;;;;;;;;;5009837;28;20469;-68
2021/08/08 05:38:03;;;;;;;38.37;35.97;;;;;;;;;;5005836;28;20465;-68
2021/08/08 05:40:30;;;;;;;38.03;35.83;;;;;;;;;;5013586;28;20485;-68
2021/08/08 05:42:59;;;;;;;37.63;35.43;;;;;;;;;;5015959;28;20466;-68
2021/08/08 05:45:26;;;;;;;39.90;37.40;;;;;;;;;;5016619;28;20487;-68
2021/08/08 05:47:55;;;;;;;41.67;39.27;;;;;;;;;;5015417;28;20465;-67
2021/08/08 05:50:22;;;;;;;41.20;38.80;;;;;;;;;;5016998;28;20497;-68
2021/08/08 05:52:49;;;;;;;43.80;41.00;;;;;;;;;;5013128;28;20493;-68
2021/08/08 05:55:16;;;;;;;44.83;42.30;;;;;;;;;;5016367;28;20474;-68
2021/08/08 05:57:43;;;;;;;43.87;41.37;;;;;;;;;;5009953;28;20473;-68
2021/08/08 06:00:13;;;;;;;45.50;42.50;;;;;;;;;;5013344;28;20587;-68
2021/08/08 06:02:40;;;;;;;44.80;42.07;;;;;;;;;;5015332;28;20464;-68
2021/08/08 06:05:07;;;;;;;43.53;41.03;;;;;;;;;;5008167;28;20469;-68
2021/08/08 06:07:35;;;;;;;40.03;37.67;;;;;;;;;;5016792;28;20971;-69
2021/08/08 06:10:02;;;;;;;40.20;37.87;;;;;;;;;;5013994;28;20491;-67
2021/08/08 06:12:29;;;;;;;44.93;41.93;;;;;;;;;;5013409;28;20485;-68
2021/08/08 06:14:56;;;;;;;45.30;42.70;;;;;;;;;;5013342;28;20823;-67
2021/08/08 06:17:25;;;;;;;46.30;43.00;;;;;;;;;;5013421;28;20473;-68
2021/08/08 06:19:52;;;;;;;48.73;45.80;;;;;;;;;;5010246;28;20938;-67
2021/08/08 06:22:19;;;;;;;49.27;46.57;;;;;;;;;;5012014;28;20465;-67
2021/08/08 06:24:46;;;;;;;49.33;46.53;;;;;;;;;;5019415;28;20953;-67
2021/08/08 06:27:13;;;;;;;44.90;42.33;;;;;;;;;;5010178;28;20474;-67
2021/08/08 06:29:40;;;;;;;52.20;49.20;;;;;;;;;;5014206;28;20481;-67
2021/08/08 06:32:07;;;;;;;47.93;45.30;;;;;;;;;;5018587;28;20485;-68
2021/08/08 06:34:37;;;;;;;45.77;43.07;;;;;;;;;;5013326;28;20473;-68
2021/08/08 06:37:04;;;;;;;43.23;40.73;;;;;;;;;;5012648;28;20492;-67
2021/08/08 06:39:31;;;;;;;43.93;41.43;;;;;;;;;;5011411;28;20500;-67
2021/08/08 06:41:58;;;;;;;42.77;40.37;;;;;;;;;;5015107;28;20475;-67
2021/08/08 06:44:28;;;;;;;42.43;40.03;;;;;;;;;;5019113;28;20469;-68
2021/08/08 06:46:55;;;;;;;47.37;44.67;;;;;;;;;;5016533;28;20520;-67
2021/08/08 06:49:22;;;;;;;46.73;44.23;;;;;;;;;;5015037;28;20476;-68
2021/08/08 06:51:50;;;;;;;44.30;41.80;;;;;;;;;;5016907;28;20492;-68
2021/08/08 06:54:17;;;;;;;43.50;41.13;;;;;;;;;;5008873;28;20474;-67
2021/08/08 06:56:44;;;;;;;43.60;41.20;;;;;;;;;;5014647;28;20480;-67
2021/08/08 06:59:12;;;;;;;41.30;39.07;;;;;;;;;;5011966;28;20536;-68
2021/08/08 07:01:39;;;;;;;43.80;41.40;;;;;;;;;;5017297;28;20468;-67
2021/08/08 07:04:06;;;;;;;49.17;46.47;;;;;;;;;;5014634;28;20470;-68
2021/08/08 07:06:33;;;;;;;44.97;42.57;;;;;;;;;;5017056;28;20469;-67
2021/08/08 07:09:02;;;;;;;44.90;42.60;;;;;;;;;;5014900;28;20468;-68
2021/08/08 07:11:29;;;;;;;47.37;44.87;;;;;;;;;;5014520;28;20558;-67
2021/08/08 07:13:56;;;;;;;46.37;43.97;;;;;;;;;;5014255;28;20469;-67
2021/08/08 07:16:23;;;;;;;43.10;40.70;;;;;;;;;;5014698;28;20461;-67
2021/08/08 07:18:50;;;;;;;43.93;41.53;;;;;;;;;;5017974;28;20473;-68
2021/08/08 07:21:18;;;;;;;43.00;40.73;;;;;;;;;;5017596;28;20493;-67
2021/08/08 07:23:45;;;;;;;44.03;41.40;;;;;;;;;;5031485;28;20463;-70
2021/08/08 07:26:13;;;;;;;41.97;39.67;;;;;;;;;;5021363;28;20953;-67
2021/08/08 07:28:40;;;;;;;42.43;40.13;;;;;;;;;;4995907;28;20452;-68
2021/08/08 07:31:07;;;;;;;45.80;43.40;;;;;;;;;;5012164;28;20468;-67
2021/08/08 07:33:34;;;;;;;40.73;38.43;;;;;;;;;;5013923;28;20482;-68
2021/08/08 07:36:02;;;;;;;39.77;37.57;;;;;;;;;;5025502;28;20453;-68
2021/08/08 07:38:29;;;;;;;39.90;37.70;;;;;;;;;;5034095;28;20451;-68
2021/08/08 07:40:56;;;;;;;38.47;36.43;;;;;;;;;;5024250;28;20477;-67
2021/08/08 07:43:24;;;;;;;39.33;37.13;;;;;;;;;;5015163;28;20453;-68
2021/08/08 07:45:51;;;;;;;42.47;40.07;;;;;;;;;;5019917;28;20445;-68
2021/08/08 07:48:18;;;;;;;41.70;39.40;;;;;;;;;;5014653;28;20450;-67
2021/08/08 07:50:45;;;;;;;37.90;35.80;;;;;;;;;;5012866;28;20560;-68
2021/08/08 07:53:13;;;;;;;39.97;37.77;;;;;;;;;;5014686;28;20490;-68
2021/08/08 07:55:40;;;;;;;59.57;56.37;;;;;;;;;;5018456;28;20815;-67
2021/08/08 07:58:07;;;;;;;115.60;110.23;;;;;;;;;;5022249;28;20445;-68
2021/08/08 08:00:35;;;;;;;171.33;163.43;;;;;;;;;;5024223;28;21020;-67
2021/08/08 08:03:02;;;;;;;161.20;152.40;;;;;;;;;;5016756;28;20450;-68
2021/08/08 08:05:29;;;;;;;164.30;154.90;;;;;;;;;;5018875;28;20458;-68
2021/08/08 08:07:56;;;;;;;176.53;166.40;;;;;;;;;;5022453;28;20461;-68
2021/08/08 08:10:24;;;;;;;204.10;193.10;;;;;;;;;;5026901;28;20987;-68
2021/08/08 08:12:51;;;;;;;202.60;191.80;;;;;;;;;;5016478;28;20481;-67
2021/08/08 08:15:18;;;;;;;197.83;187.83;;;;;;;;;;5032122;28;20467;-68
2021/08/08 08:17:49;;;;;;;191.00;181.00;;;;;;;;;;5024977;28;20464;-68
2021/08/08 08:20:16;;;;;;;179.93;170.10;;;;;;;;;;5015284;28;20476;-68
2021/08/08 08:22:43;;;;;;;186.53;176.63;;;;;;;;;;5026481;28;20475;-68
2021/08/08 08:25:11;;;;;;;185.03;176.03;;;;;;;;;;5024386;28;20545;-67
2021/08/08 08:27:38;;;;;;;170.23;162.33;;;;;;;;;;5015376;28;20465;-68
2021/08/08 08:30:05;;;;;;;159.40;151.40;;;;;;;;;;5028024;28;20466;-68
2021/08/08 08:32:33;;;;;;;155.17;147.50;;;;;;;;;;5028272;28;20888;-69
2021/08/08 08:35:03;;;;;;;154.83;147.53;;;;;;;;;;5011923;28;20851;-68
2021/08/08 08:37:30;;;;;;;145.87;138.87;;;;;;;;;;5009049;28;20846;-68
2021/08/08 08:39:57;;;;;;;144.00;137.30;;;;;;;;;;5013645;28;20477;-68
2021/08/08 08:42:26;;;;;;;139.97;133.57;;;;;;;;;;5013629;28;20453;-67
2021/08/08 08:44:54;;;;;;;176.57;166.57;;;;;;;;;;5013802;28;20460;-66
2021/08/08 08:47:21;;;;;;;184.33;174.83;;;;;;;;;;5011622;28;20516;-67
2021/08/08 08:49:49;;;;;;;188.23;177.93;;;;;;;;;;5012214;28;20992;-69
2021/08/08 08:52:22;;;;;;;181.73;171.27;;;;;;;;;;5012012;28;20481;-67
2021/08/08 08:54:49;;;;;;;184.97;174.97;;;;;;;;;;5013388;28;20901;-70
2021/08/08 08:57:17;;;;;;;188.40;177.70;;;;;;;;;;5013240;28;20461;-70
2021/08/08 08:59:46;;;;;;;204.27;194.10;;;;;;;;;;5013144;28;20492;-69
2021/08/08 09:02:14;;;;;;;191.07;180.90;;;;;;;;;;5014883;28;20445;-69
2021/08/08 09:04:41;;;;;;;174.87;165.57;;;;;;;;;;5013381;28;20460;-69
2021/08/08 09:07:08;;;;;;;168.27;159.27;;;;;;;;;;5012960;28;20465;-70
2021/08/08 09:09:38;;;;;;;161.97;153.63;;;;;;;;;;5028398;28;20469;-70
2021/08/08 09:12:06;;;;;;;154.77;146.73;;;;;;;;;;5030962;28;20540;-70
2021/08/08 09:14:33;;;;;;;154.37;146.73;;;;;;;;;;5032949;28;20449;-69
2021/08/08 09:17:00;;;;;;;143.30;136.00;;;;;;;;;;5013594;28;20449;-69
2021/08/08 09:19:28;;;;;;;137.17;130.53;;;;;;;;;;5013538;28;20520;-70
2021/08/08 09:21:56;;;;;;;130.73;124.37;;;;;;;;;;5012647;28;20450;-70
2021/08/08 09:24:24;;;;;;;131.07;125.00;;;;;;;;;;5012521;28;20449;-70
2021/08/08 09:27:01;;;;;;;128.33;122.23;;;;;;;;;;5012726;28;20454;-69
2021/08/08 09:29:28;;;;;;;133.83;127.53;;;;;;;;;;5013684;28;20927;-69
2021/08/08 09:31:56;;;;;;;136.90;130.53;;;;;;;;;;5014087;28;20454;-69
2021/08/08 09:34:24;;;;;;;131.73;125.53;;;;;;;;;;5013338;28;20450;-70
2021/08/08 09:36:51;;;;;;;127.27;121.07;;;;;;;;;;5012068;28;20449;-70
2021/08/08 09:39:28;;;;;;;136.97;130.50;;;;;;;;;;5012819;28;20451;-69
2021/08/08 09:42:06;;;;;;;142.17;135.57;;;;;;;;;;5012712;28;20459;-70
2021/08/08 09:44:33;;;;;;;120.30;114.40;;;;;;;;;;5017526;28;20460;-69
2021/08/08 09:47:00;;;;;;;120.93;115.20;;;;;;;;;;5012829;28;20465;-68
2021/08/08 09:49:27;;;;;;;122.77;117.07;;;;;;;;;;5013065;28;20453;-69
2021/08/08 09:51:55;;;;;;;125.57;119.57;;;;;;;;;;5016979;28;20461;-68
2021/08/08 09:54:22;;;;;;;129.27;122.90;;;;;;;;;;5026022;28;20848;-70
2021/08/08 09:56:58;;;;;;;124.87;118.37;;;;;;;;;;5013141;28;20445;-69
2021/08/08 09:59:27;;;;;;;131.17;125.27;;;;;;;;;;5011766;28;20955;-69
2021/08/08 10:01:54;;;;;;;126.93;121.03;;;;;;;;;;5012038;28;20483;-69
2021/08/08 10:04:21;;;;;;;112.23;106.80;;;;;;;;;;5012654;28;20452;-68
2021/08/08 10:06:48;;;;;;;115.10;109.70;;;;;;;;;;5012204;28;20453;-69
2021/08/08 10:09:17;;;;;;;125.77;119.87;;;;;;;;;;5012552;28;20830;-69
2021/08/08 10:11:46;;;;;;;114.53;109.00;;;;;;;;;;5013381;28;20870;-69
2021/08/08 10:14:14;;;;;;;110.87;105.83;;;;;;;;;;5016756;28;20538;-70
2021/08/08 10:16:44;;;;;;;120.37;114.83;;;;;;;;;;5032250;28;20842;-69
2021/08/08 10:19:11;;;;;;;120.70;115.10;;;;;;;;;;5025448;28;20457;-70
2021/08/08 10:21:42;;;;;;;114.53;109.37;;;;;;;;;;5027797;28;20468;-70
2021/08/08 10:24:10;;;;;;;109.80;104.50;;;;;;;;;;5028559;28;20441;-70
2021/08/08 10:26:37;;;;;;;111.00;105.67;;;;;;;;;;5035776;28;20456;-69
2021/08/08 10:29:05;;;;;;;107.67;102.57;;;;;;;;;;5035926;28;20457;-70
2021/08/08 10:31:33;;;;;;;108.07;102.47;;;;;;;;;;5035752;28;20472;-70
2021/08/08 10:34:02;;;;;;;109.80;104.50;;;;;;;;;;5019377;28;20481;-70
2021/08/08 10:36:31;;;;;;;98.70;93.90;;;;;;;;;;5016316;28;20464;-70
2021/08/08 10:39:07;;;;;;;95.30;90.70;;;;;;;;;;5017704;28;20823;-69
2021/08/08 10:41:34;;;;;;;99.20;94.50;;;;;;;;;;5036149;28;20472;-69
2021/08/08 10:44:08;;;;;;;100.50;95.70;;;;;;;;;;5035656;28;20461;-70
2021/08/08 10:46:46;;;;;;;97.87;93.17;;;;;;;;;;5031038;28;20460;-70
2021/08/08 10:49:14;;;;;;;92.27;87.47;;;;;;;;;;5017054;28;20479;-69
2021/08/08 10:51:41;;;;;;;90.80;86.07;;;;;;;;;;5017586;28;20452;-70
2021/08/08 10:54:09;;;;;;;86.80;82.47;;;;;;;;;;5016894;28;20825;-69
2021/08/08 10:56:40;;;;;;;84.50;80.00;;;;;;;;;;5015401;28;20828;-69
2021/08/08 10:59:13;;;;;;;79.50;75.20;;;;;;;;;;5015508;28;20488;-70
2021/08/08 11:01:40;;;;;;;82.07;77.80;;;;;;;;;;5020091;28;20838;-70
2021/08/08 11:04:07;;;;;;;75.03;71.10;;;;;;;;;;5016640;28;20445;-69
2021/08/08 11:06:36;;;;;;;76.03;71.90;;;;;;;;;;5018341;28;20460;-69
2021/08/08 11:09:04;;;;;;;71.07;67.17;;;;;;;;;;5015200;28;20453;-70
2021/08/08 11:11:33;;;;;;;79.27;75.03;;;;;;;;;;5015871;28;20469;-70
2021/08/08 11:14:14;;;;;;;75.50;71.30;;;;;;;;;;5015313;28;20493;-70
2021/08/08 11:16:42;;;;;;;73.80;69.80;;;;;;;;;;5001942;28;20985;-70
2021/08/08 11:19:09;;;;;;;64.03;60.57;;;;;;;;;;5016406;28;20456;-69
2021/08/08 11:21:38;;;;;;;70.33;66.60;;;;;;;;;;5021445;28;20468;-69
2021/08/08 11:24:06;;;;;;;70.20;66.43;;;;;;;;;;5022697;28;20445;-69
2021/08/08 11:26:34;;;;;;;70.60;66.67;;;;;;;;;;5017870;28;20454;-70
2021/08/08 11:29:02;;;;;;;69.03;65.33;;;;;;;;;;5016111;28;20445;-69
2021/08/08 11:31:30;;;;;;;70.50;66.90;;;;;;;;;;5007667;28;20486;-70
2021/08/08 11:34:01;;;;;;;70.63;66.90;;;;;;;;;;5003426;28;20489;-69
2021/08/08 11:36:29;;;;;;;69.03;65.17;;;;;;;;;;4997079;28;20835;-69
2021/08/08 11:38:58;;;;;;;67.20;63.40;;;;;;;;;;5015279;28;20462;-69
2021/08/08 11:41:26;;;;;;;66.90;63.43;;;;;;;;;;5014371;28;20486;-68
2021/08/08 11:44:02;;;;;;;67.43;63.90;;;;;;;;;;5015996;28;20464;-69
2021/08/08 11:46:29;;;;;;;68.33;64.40;;;;;;;;;;5029280;28;20514;-69
2021/08/08 11:48:56;;;;;;;67.70;64.07;;;;;;;;;;5031183;28;20840;-69
2021/08/08 11:51:24;;;;;;;63.20;59.70;;;;;;;;;;5014503;28;20475;-68
2021/08/08 11:53:54;;;;;;;63.33;59.70;;;;;;;;;;5014610;28;20485;-69
2021/08/08 11:56:24;;;;;;;56.80;53.70;;;;;;;;;;5014650;28;20444;-69
2021/08/08 11:58:52;;;;;;;52.73;49.70;;;;;;;;;;5015508;28;20544;-69
2021/08/08 12:01:22;;;;;;;50.90;48.00;;;;;;;;;;5016357;28;20480;-69
2021/08/08 12:03:50;;;;;;;47.50;44.77;;;;;;;;;;5032587;28;20456;-69
2021/08/08 12:06:20;;;;;;;47.07;44.17;;;;;;;;;;5013506;28;20466;-70
2021/08/08 12:08:47;;;;;;;47.47;44.57;;;;;;;;;;5011969;28;20469;-68
2021/08/08 12:11:14;;;;;;;48.33;45.57;;;;;;;;;;5014143;28;20494;-68
2021/08/08 12:13:43;;;;;;;51.20;48.40;;;;;;;;;;5021777;28;20484;-69
2021/08/08 12:16:13;;;;;;;48.13;45.37;;;;;;;;;;5021403;28;20457;-68
2021/08/08 12:18:40;;;;;;;46.13;43.33;;;;;;;;;;5013978;28;20450;-68
2021/08/08 12:21:15;;;;;;;44.93;42.43;;;;;;;;;;5013618;28;20992;-68
2021/08/08 12:23:43;;;;;;;45.40;43.00;;;;;;;;;;5013701;28;20956;-68
2021/08/08 12:26:10;;;;;;;45.00;42.50;;;;;;;;;;5013909;28;20485;-70
2021/08/08 12:28:37;;;;;;;47.10;44.40;;;;;;;;;;5014638;28;20445;-68
2021/08/08 12:31:09;;;;;;;48.60;45.90;;;;;;;;;;5014203;28;20469;-69
2021/08/08 12:33:37;;;;;;;51.97;48.90;;;;;;;;;;5013843;28;20493;-68
2021/08/08 12:36:11;;;;;;;67.70;64.00;;;;;;;;;;5014419;28;20450;-68
2021/08/08 12:38:48;;;;;;;67.50;64.10;;;;;;;;;;5013266;28;20457;-68
2021/08/08 12:41:26;;;;;;;65.80;61.63;;;;;;;;;;5013384;28;20480;-68
2021/08/08 12:43:56;;;;;;;73.50;69.80;;;;;;;;;;5021368;28;20437;-69
2021/08/08 12:46:31;;;;;;;74.43;70.70;;;;;;;;;;5014068;28;20449;-68
2021/08/08 12:49:02;;;;;;;63.67;60.27;;;;;;;;;;5030483;28;20452;-68
2021/08/08 12:51:29;;;;;;;60.17;56.87;;;;;;;;;;5026379;28;20469;-68
2021/08/08 12:53:57;;;;;;;56.73;53.33;;;;;;;;;;5013406;28;20481;-68
2021/08/08 12:56:24;;;;;;;56.37;53.17;;;;;;;;;;5015256;28;20460;-68
2021/08/08 12:58:53;;;;;;;52.00;48.90;;;;;;;;;;5013630;28;20449;-68
2021/08/08 13:01:21;;;;;;;50.10;47.30;;;;;;;;;;5013728;28;20480;-68
2021/08/08 13:03:49;;;;;;;49.67;46.97;;;;;;;;;;5030307;22;20506;-69
2021/08/08 13:06:17;;;;;;;46.93;44.33;;;;;;;;;;4999230;28;20814;-68
2021/08/08 13:08:44;;;;;;;46.50;43.60;;;;;;;;;;4992691;28;20461;-69
2021/08/08 13:11:11;;;;;;;45.13;42.30;;;;;;;;;;4992979;28;20458;-69
2021/08/08 13:13:38;;;;;;;48.07;45.23;;;;;;;;;;5003213;28;21002;-68
2021/08/08 13:16:06;;;;;;;49.30;46.70;;;;;;;;;;5013184;28;20954;-68
2021/08/08 13:18:34;;;;;;;47.20;44.50;;;;;;;;;;4993954;28;20545;-68
2021/08/08 13:21:03;;;;;;;47.10;44.27;;;;;;;;;;4974083;28;21110;-69
2021/08/08 13:23:31;;;;;;;46.63;43.93;;;;;;;;;;4996853;28;20466;-69
2021/08/08 13:25:58;;;;;;;45.73;42.83;;;;;;;;;;4994323;28;20816;-68
2021/08/08 13:28:25;;;;;;;45.43;42.90;;;;;;;;;;5008945;28;20449;-68
2021/08/08 13:30:52;;;;;;;44.03;41.40;;;;;;;;;;5012793;28;20969;-68
2021/08/08 13:33:19;;;;;;;42.47;40.00;;;;;;;;;;4997084;28;20472;-68
2021/08/08 13:35:46;;;;;;;42.57;40.10;;;;;;;;;;4993740;28;20480;-69
2021/08/08 13:38:15;;;;;;;40.10;37.67;;;;;;;;;;4994706;28;20451;-68
2021/08/08 13:40:42;;;;;;;40.67;38.27;;;;;;;;;;4994067;28;20454;-69
2021/08/08 13:43:09;;;;;;;40.07;37.77;;;;;;;;;;4993344;28;20478;-69
2021/08/08 13:45:36;;;;;;;41.13;38.73;;;;;;;;;;4992357;28;20969;-68
2021/08/08 13:48:03;;;;;;;42.77;40.07;;;;;;;;;;4991444;28;20476;-68
2021/08/08 13:50:30;;;;;;;40.67;38.23;;;;;;;;;;4993196;28;20460;-69
2021/08/08 13:52:57;;;;;;;41.93;39.47;;;;;;;;;;4988132;28;20479;-68
2021/08/08 13:55:26;;;;;;;41.17;38.87;;;;;;;;;;5007821;28;20493;-68
2021/08/08 13:57:53;;;;;;;39.90;37.60;;;;;;;;;;4986326;28;20485;-68
2021/08/08 14:00:20;;;;;;;41.00;38.40;;;;;;;;;;4991230;28;20454;-68
2021/08/08 14:02:47;;;;;;;39.40;36.80;;;;;;;;;;4992581;28;20847;-68
2021/08/08 14:05:16;;;;;;;40.00;37.70;;;;;;;;;;4993771;28;20431;-69
2021/08/08 14:07:43;;;;;;;39.70;37.40;;;;;;;;;;4992252;28;20462;-68
2021/08/08 14:10:12;;;;;;;41.27;38.87;;;;;;;;;;4991577;28;20446;-68
2021/08/08 14:12:41;;;;;;;38.93;36.63;;;;;;;;;;5003055;28;20537;-68
2021/08/08 14:15:09;;;;;;;38.83;36.37;;;;;;;;;;4997624;28;20501;-68